sensor_id;sensor_type;location;lat;lon;timestamp;P1;durP1;ratioP1;P2;durP2;ratioP2
76693;SDS011;65625;52.136;5.424;2023-01-01T00:02:01;23.05;;;10.27;;
76693;SDS011;65625;52.136;5.424;2023-01-01T00:04:28;25.45;;;11.55;;
76693;SDS011;65625;52.136;5.424;2023-01-01T00:06:54;21.38;;;10.98;;
76693;SDS011;65625;52.136;5.424;2023-01-01T00:09:21;25.20;;;13.98;;
76693;SDS011;65625;52.136;5.424;2023-01-01T00:12:06;28.88;;;12.82;;
76693;SDS011;65625;52.136;5.424;2023-01-01T00:14:32;24.25;;;12.85;;
76693;SDS011;65625;52.136;5.424;2023-01-01T00:16:59;26.08;;;14.27;;
76693;SDS011;65625;52.136;5.424;2023-01-01T00:19:25;17.05;;;10.43;;
76693;SDS011;65625;52.136;5.424;2023-01-01T00:21:52;23.92;;;12.75;;
76693;SDS011;65625;52.136;5.424;2023-01-01T00:24:19;24.23;;;12.07;;
76693;SDS011;65625;52.136;5.424;2023-01-01T00:26:45;25.75;;;14.10;;
76693;SDS011;65625;52.136;5.424;2023-01-01T00:29:12;25.23;;;13.55;;
76693;SDS011;65625;52.136;5.424;2023-01-01T00:31:38;34.15;;;15.38;;
76693;SDS011;65625;52.136;5.424;2023-01-01T00:34:05;27.52;;;13.02;;
76693;SDS011;65625;52.136;5.424;2023-01-01T00:36:31;19.13;;;11.40;;
76693;SDS011;65625;52.136;5.424;2023-01-01T00:38:58;19.92;;;9.98;;
76693;SDS011;65625;52.136;5.424;2023-01-01T00:41:25;21.90;;;12.45;;
76693;SDS011;65625;52.136;5.424;2023-01-01T00:43:51;26.58;;;13.13;;
76693;SDS011;65625;52.136;5.424;2023-01-01T00:46:18;18.88;;;9.80;;
76693;SDS011;65625;52.136;5.424;2023-01-01T00:48:44;22.95;;;11.38;;
76693;SDS011;65625;52.136;5.424;2023-01-01T00:51:11;21.30;;;10.40;;
76693;SDS011;65625;52.136;5.424;2023-01-01T00:53:37;17.77;;;10.18;;
76693;SDS011;65625;52.136;5.424;2023-01-01T00:56:04;18.35;;;6.78;;
76693;SDS011;65625;52.136;5.424;2023-01-01T00:58:31;19.23;;;8.13;;
76693;SDS011;65625;52.136;5.424;2023-01-01T01:00:58;19.88;;;5.65;;
76693;SDS011;65625;52.136;5.424;2023-01-01T01:03:25;13.63;;;5.63;;
76693;SDS011;65625;52.136;5.424;2023-01-01T01:08:29;11.23;;;4.35;;
76693;SDS011;65625;52.136;5.424;2023-01-01T01:11:04;13.70;;;4.63;;
76693;SDS011;65625;52.136;5.424;2023-01-01T01:13:35;13.15;;;4.97;;
76693;SDS011;65625;52.136;5.424;2023-01-01T01:16:36;14.18;;;3.78;;
76693;SDS011;65625;52.136;5.424;2023-01-01T01:18:58;10.60;;;4.30;;
76693;SDS011;65625;52.136;5.424;2023-01-01T01:21:27;9.75;;;3.88;;
76693;SDS011;65625;52.136;5.424;2023-01-01T01:23:58;8.80;;;3.30;;
76693;SDS011;65625;52.136;5.424;2023-01-01T01:26:27;13.63;;;3.72;;
76693;SDS011;65625;52.136;5.424;2023-01-01T01:28:55;9.32;;;3.25;;
76693;SDS011;65625;52.136;5.424;2023-01-01T01:31:22;10.38;;;3.22;;
76693;SDS011;65625;52.136;5.424;2023-01-01T01:33:51;11.45;;;3.85;;
76693;SDS011;65625;52.136;5.424;2023-01-01T01:36:18;10.05;;;4.28;;
76693;SDS011;65625;52.136;5.424;2023-01-01T01:38:45;9.15;;;3.97;;
76693;SDS011;65625;52.136;5.424;2023-01-01T01:41:12;13.32;;;4.07;;
76693;SDS011;65625;52.136;5.424;2023-01-01T01:43:54;8.55;;;2.60;;
76693;SDS011;65625;52.136;5.424;2023-01-01T01:46:49;4.65;;;2.47;;
76693;SDS011;65625;52.136;5.424;2023-01-01T01:49:17;11.98;;;3.13;;
76693;SDS011;65625;52.136;5.424;2023-01-01T01:54:19;6.97;;;2.58;;
76693;SDS011;65625;52.136;5.424;2023-01-01T01:56:50;7.88;;;3.13;;
76693;SDS011;65625;52.136;5.424;2023-01-01T01:59:31;8.95;;;2.10;;
76693;SDS011;65625;52.136;5.424;2023-01-01T02:02:00;8.82;;;2.95;;
76693;SDS011;65625;52.136;5.424;2023-01-01T02:04:28;6.40;;;2.78;;
76693;SDS011;65625;52.136;5.424;2023-01-01T02:06:54;6.47;;;2.78;;
76693;SDS011;65625;52.136;5.424;2023-01-01T02:09:21;8.63;;;2.88;;
76693;SDS011;65625;52.136;5.424;2023-01-01T02:11:49;10.45;;;2.85;;
76693;SDS011;65625;52.136;5.424;2023-01-01T02:14:15;7.95;;;2.53;;
76693;SDS011;65625;52.136;5.424;2023-01-01T02:16:48;4.20;;;2.20;;
76693;SDS011;65625;52.136;5.424;2023-01-01T02:31:13;8.55;;;3.05;;
76693;SDS011;65625;52.136;5.424;2023-01-01T02:33:48;5.38;;;2.10;;
76693;SDS011;65625;52.136;5.424;2023-01-01T02:36:18;4.85;;;2.05;;
76693;SDS011;65625;52.136;5.424;2023-01-01T02:38:47;5.53;;;1.90;;
76693;SDS011;65625;52.136;5.424;2023-01-01T02:41:19;8.32;;;2.13;;
76693;SDS011;65625;52.136;5.424;2023-01-01T02:43:50;8.45;;;1.60;;
76693;SDS011;65625;52.136;5.424;2023-01-01T02:46:17;7.45;;;1.75;;
76693;SDS011;65625;52.136;5.424;2023-01-01T02:48:44;5.22;;;2.00;;
76693;SDS011;65625;52.136;5.424;2023-01-01T02:53:46;7.35;;;1.88;;
76693;SDS011;65625;52.136;5.424;2023-01-01T02:56:32;6.43;;;2.20;;
76693;SDS011;65625;52.136;5.424;2023-01-01T03:02:18;9.43;;;1.80;;
76693;SDS011;65625;52.136;5.424;2023-01-01T03:04:51;6.55;;;1.92;;
76693;SDS011;65625;52.136;5.424;2023-01-01T03:10:03;9.82;;;1.95;;
76693;SDS011;65625;52.136;5.424;2023-01-01T03:12:50;7.22;;;1.77;;
76693;SDS011;65625;52.136;5.424;2023-01-01T03:18:15;5.82;;;1.80;;
76693;SDS011;65625;52.136;5.424;2023-01-01T03:20:47;6.25;;;1.60;;
76693;SDS011;65625;52.136;5.424;2023-01-01T03:23:20;4.75;;;1.80;;
76693;SDS011;65625;52.136;5.424;2023-01-01T03:25:53;7.90;;;1.50;;
76693;SDS011;65625;52.136;5.424;2023-01-01T03:28:33;5.85;;;1.33;;
76693;SDS011;65625;52.136;5.424;2023-01-01T03:31:05;4.28;;;1.45;;
76693;SDS011;65625;52.136;5.424;2023-01-01T03:36:20;8.07;;;1.70;;
76693;SDS011;65625;52.136;5.424;2023-01-01T03:44:00;6.40;;;2.40;;
76693;SDS011;65625;52.136;5.424;2023-01-01T03:46:33;5.97;;;1.58;;
76693;SDS011;65625;52.136;5.424;2023-01-01T03:49:01;7.13;;;1.38;;
76693;SDS011;65625;52.136;5.424;2023-01-01T03:54:35;3.55;;;1.35;;
76693;SDS011;65625;52.136;5.424;2023-01-01T03:57:03;10.70;;;1.67;;
76693;SDS011;65625;52.136;5.424;2023-01-01T03:59:44;5.15;;;1.42;;
76693;SDS011;65625;52.136;5.424;2023-01-01T04:02:19;6.30;;;1.80;;
76693;SDS011;65625;52.136;5.424;2023-01-01T04:04:52;5.97;;;1.23;;
76693;SDS011;65625;52.136;5.424;2023-01-01T04:07:18;6.53;;;1.40;;
76693;SDS011;65625;52.136;5.424;2023-01-01T04:09:47;4.60;;;1.60;;
76693;SDS011;65625;52.136;5.424;2023-01-01T04:12:17;11.23;;;1.50;;
76693;SDS011;65625;52.136;5.424;2023-01-01T04:14:45;7.20;;;1.27;;
76693;SDS011;65625;52.136;5.424;2023-01-01T04:17:11;5.57;;;1.35;;
76693;SDS011;65625;52.136;5.424;2023-01-01T04:19:38;4.60;;;1.35;;
76693;SDS011;65625;52.136;5.424;2023-01-01T04:22:05;5.15;;;1.67;;
76693;SDS011;65625;52.136;5.424;2023-01-01T04:24:32;9.38;;;2.60;;
76693;SDS011;65625;52.136;5.424;2023-01-01T04:26:58;5.05;;;1.38;;
76693;SDS011;65625;52.136;5.424;2023-01-01T04:29:25;7.32;;;1.48;;
76693;SDS011;65625;52.136;5.424;2023-01-01T04:31:51;5.32;;;1.30;;
76693;SDS011;65625;52.136;5.424;2023-01-01T04:34:18;6.70;;;1.55;;
76693;SDS011;65625;52.136;5.424;2023-01-01T04:36:45;5.60;;;1.27;;
76693;SDS011;65625;52.136;5.424;2023-01-01T04:39:11;9.05;;;1.55;;
76693;SDS011;65625;52.136;5.424;2023-01-01T04:41:38;4.30;;;1.40;;
76693;SDS011;65625;52.136;5.424;2023-01-01T04:44:05;9.50;;;1.50;;
76693;SDS011;65625;52.136;5.424;2023-01-01T04:46:31;10.02;;;1.92;;
76693;SDS011;65625;52.136;5.424;2023-01-01T04:48:58;8.63;;;1.52;;
76693;SDS011;65625;52.136;5.424;2023-01-01T04:51:24;7.13;;;1.50;;
76693;SDS011;65625;52.136;5.424;2023-01-01T04:53:51;6.47;;;1.67;;
76693;SDS011;65625;52.136;5.424;2023-01-01T04:56:19;7.40;;;1.40;;
76693;SDS011;65625;52.136;5.424;2023-01-01T04:58:47;5.05;;;1.65;;
76693;SDS011;65625;52.136;5.424;2023-01-01T05:01:16;4.20;;;1.10;;
76693;SDS011;65625;52.136;5.424;2023-01-01T05:03:47;6.72;;;1.60;;
76693;SDS011;65625;52.136;5.424;2023-01-01T05:06:15;6.28;;;1.50;;
76693;SDS011;65625;52.136;5.424;2023-01-01T05:08:42;8.90;;;1.60;;
76693;SDS011;65625;52.136;5.424;2023-01-01T05:13:43;3.75;;;1.30;;
76693;SDS011;65625;52.136;5.424;2023-01-01T05:16:13;7.13;;;1.77;;
76693;SDS011;65625;52.136;5.424;2023-01-01T05:18:42;4.32;;;1.38;;
76693;SDS011;65625;52.136;5.424;2023-01-01T05:21:10;8.73;;;1.38;;
76693;SDS011;65625;52.136;5.424;2023-01-01T05:23:38;3.03;;;1.48;;
76693;SDS011;65625;52.136;5.424;2023-01-01T05:28:42;5.53;;;1.42;;
76693;SDS011;65625;52.136;5.424;2023-01-01T05:31:11;6.90;;;1.50;;
76693;SDS011;65625;52.136;5.424;2023-01-01T05:33:40;7.63;;;1.83;;
76693;SDS011;65625;52.136;5.424;2023-01-01T05:36:09;3.55;;;1.02;;
76693;SDS011;65625;52.136;5.424;2023-01-01T05:38:40;8.10;;;1.05;;
76693;SDS011;65625;52.136;5.424;2023-01-01T05:41:07;3.22;;;0.82;;
76693;SDS011;65625;52.136;5.424;2023-01-01T05:43:36;8.00;;;1.20;;
76693;SDS011;65625;52.136;5.424;2023-01-01T05:48:31;6.78;;;1.52;;
76693;SDS011;65625;52.136;5.424;2023-01-01T05:51:08;6.32;;;1.25;;
76693;SDS011;65625;52.136;5.424;2023-01-01T05:53:36;5.45;;;1.15;;
76693;SDS011;65625;52.136;5.424;2023-01-01T05:56:04;3.55;;;1.20;;
76693;SDS011;65625;52.136;5.424;2023-01-01T05:58:31;8.15;;;1.90;;
76693;SDS011;65625;52.136;5.424;2023-01-01T06:01:10;4.43;;;1.10;;
76693;SDS011;65625;52.136;5.424;2023-01-01T06:03:39;3.35;;;0.98;;
76693;SDS011;65625;52.136;5.424;2023-01-01T06:06:07;3.67;;;0.90;;
76693;SDS011;65625;52.136;5.424;2023-01-01T06:08:39;4.97;;;0.98;;
76693;SDS011;65625;52.136;5.424;2023-01-01T06:11:07;5.72;;;1.17;;
76693;SDS011;65625;52.136;5.424;2023-01-01T06:13:36;4.95;;;0.80;;
76693;SDS011;65625;52.136;5.424;2023-01-01T06:16:03;4.03;;;0.88;;
76693;SDS011;65625;52.136;5.424;2023-01-01T06:18:31;3.33;;;0.85;;
76693;SDS011;65625;52.136;5.424;2023-01-01T06:21:09;3.85;;;0.98;;
76693;SDS011;65625;52.136;5.424;2023-01-01T06:23:38;3.83;;;0.82;;
76693;SDS011;65625;52.136;5.424;2023-01-01T06:26:10;5.78;;;0.75;;
76693;SDS011;65625;52.136;5.424;2023-01-01T06:28:38;1.90;;;0.50;;
76693;SDS011;65625;52.136;5.424;2023-01-01T06:31:06;6.25;;;1.15;;
76693;SDS011;65625;52.136;5.424;2023-01-01T06:33:35;2.47;;;0.60;;
76693;SDS011;65625;52.136;5.424;2023-01-01T06:36:03;5.60;;;0.60;;
76693;SDS011;65625;52.136;5.424;2023-01-01T06:38:34;3.83;;;0.90;;
76693;SDS011;65625;52.136;5.424;2023-01-01T06:41:06;1.90;;;0.45;;
76693;SDS011;65625;52.136;5.424;2023-01-01T06:43:35;7.13;;;0.70;;
76693;SDS011;65625;52.136;5.424;2023-01-01T06:46:05;4.82;;;0.70;;
76693;SDS011;65625;52.136;5.424;2023-01-01T06:48:34;3.50;;;0.70;;
76693;SDS011;65625;52.136;5.424;2023-01-01T06:51:05;7.20;;;1.15;;
76693;SDS011;65625;52.136;5.424;2023-01-01T06:56:03;4.47;;;0.70;;
76693;SDS011;65625;52.136;5.424;2023-01-01T06:58:30;3.55;;;1.05;;
76693;SDS011;65625;52.136;5.424;2023-01-01T07:01:09;4.30;;;0.70;;
76693;SDS011;65625;52.136;5.424;2023-01-01T07:03:37;7.45;;;0.90;;
76693;SDS011;65625;52.136;5.424;2023-01-01T07:06:05;3.05;;;0.70;;
76693;SDS011;65625;52.136;5.424;2023-01-01T07:08:33;6.65;;;0.88;;
76693;SDS011;65625;52.136;5.424;2023-01-01T07:11:00;2.92;;;0.50;;
76693;SDS011;65625;52.136;5.424;2023-01-01T07:13:27;4.95;;;0.60;;
76693;SDS011;65625;52.136;5.424;2023-01-01T07:15:55;2.60;;;0.32;;
76693;SDS011;65625;52.136;5.424;2023-01-01T07:18:22;2.50;;;0.85;;
76693;SDS011;65625;52.136;5.424;2023-01-01T07:20:50;2.85;;;0.55;;
76693;SDS011;65625;52.136;5.424;2023-01-01T07:23:19;2.13;;;0.43;;
76693;SDS011;65625;52.136;5.424;2023-01-01T07:25:47;4.55;;;0.70;;
76693;SDS011;65625;52.136;5.424;2023-01-01T07:28:14;2.45;;;0.52;;
76693;SDS011;65625;52.136;5.424;2023-01-01T07:30:41;5.03;;;1.00;;
76693;SDS011;65625;52.136;5.424;2023-01-01T07:33:10;4.93;;;0.63;;
76693;SDS011;65625;52.136;5.424;2023-01-01T07:35:37;3.35;;;0.55;;
76693;SDS011;65625;52.136;5.424;2023-01-01T07:38:05;3.72;;;0.70;;
76693;SDS011;65625;52.136;5.424;2023-01-01T07:40:33;2.97;;;0.70;;
76693;SDS011;65625;52.136;5.424;2023-01-01T07:42:59;5.65;;;0.65;;
76693;SDS011;65625;52.136;5.424;2023-01-01T07:45:26;3.30;;;0.40;;
76693;SDS011;65625;52.136;5.424;2023-01-01T07:47:53;3.70;;;0.70;;
76693;SDS011;65625;52.136;5.424;2023-01-01T07:50:21;4.50;;;0.55;;
76693;SDS011;65625;52.136;5.424;2023-01-01T07:52:49;3.80;;;0.63;;
76693;SDS011;65625;52.136;5.424;2023-01-01T07:55:16;6.78;;;0.60;;
76693;SDS011;65625;52.136;5.424;2023-01-01T07:57:44;3.05;;;0.50;;
76693;SDS011;65625;52.136;5.424;2023-01-01T08:00:15;6.53;;;0.90;;
76693;SDS011;65625;52.136;5.424;2023-01-01T08:02:43;4.72;;;0.75;;
76693;SDS011;65625;52.136;5.424;2023-01-01T08:05:10;2.78;;;0.60;;
76693;SDS011;65625;52.136;5.424;2023-01-01T08:07:37;3.63;;;0.60;;
76693;SDS011;65625;52.136;5.424;2023-01-01T08:10:04;2.88;;;0.52;;
76693;SDS011;65625;52.136;5.424;2023-01-01T08:12:32;3.70;;;0.60;;
76693;SDS011;65625;52.136;5.424;2023-01-01T08:15:00;5.25;;;0.73;;
76693;SDS011;65625;52.136;5.424;2023-01-01T08:17:27;5.03;;;0.52;;
76693;SDS011;65625;52.136;5.424;2023-01-01T08:19:53;5.90;;;0.57;;
76693;SDS011;65625;52.136;5.424;2023-01-01T08:22:20;5.28;;;0.60;;
76693;SDS011;65625;52.136;5.424;2023-01-01T08:24:46;3.03;;;0.57;;
76693;SDS011;65625;52.136;5.424;2023-01-01T08:27:13;5.50;;;0.57;;
76693;SDS011;65625;52.136;5.424;2023-01-01T08:29:41;4.85;;;0.57;;
76693;SDS011;65625;52.136;5.424;2023-01-01T08:32:08;4.78;;;0.65;;
76693;SDS011;65625;52.136;5.424;2023-01-01T08:34:34;4.95;;;0.45;;
76693;SDS011;65625;52.136;5.424;2023-01-01T08:37:01;4.47;;;0.40;;
76693;SDS011;65625;52.136;5.424;2023-01-01T08:39:28;5.22;;;0.65;;
76693;SDS011;65625;52.136;5.424;2023-01-01T08:41:54;2.13;;;0.43;;
76693;SDS011;65625;52.136;5.424;2023-01-01T08:44:21;4.25;;;0.70;;
76693;SDS011;65625;52.136;5.424;2023-01-01T08:46:48;5.25;;;0.70;;
76693;SDS011;65625;52.136;5.424;2023-01-01T08:49:15;5.97;;;0.73;;
76693;SDS011;65625;52.136;5.424;2023-01-01T08:51:41;8.18;;;0.70;;
76693;SDS011;65625;52.136;5.424;2023-01-01T08:54:08;6.47;;;0.85;;
76693;SDS011;65625;52.136;5.424;2023-01-01T08:56:34;2.72;;;0.50;;
76693;SDS011;65625;52.136;5.424;2023-01-01T08:59:02;3.83;;;0.63;;
76693;SDS011;65625;52.136;5.424;2023-01-01T09:01:30;2.88;;;0.73;;
76693;SDS011;65625;52.136;5.424;2023-01-01T09:03:57;5.35;;;0.60;;
76693;SDS011;65625;52.136;5.424;2023-01-01T09:06:24;4.47;;;0.80;;
76693;SDS011;65625;52.136;5.424;2023-01-01T09:08:50;7.40;;;0.93;;
76693;SDS011;65625;52.136;5.424;2023-01-01T09:11:21;5.85;;;0.77;;
76693;SDS011;65625;52.136;5.424;2023-01-01T09:13:49;4.53;;;0.50;;
76693;SDS011;65625;52.136;5.424;2023-01-01T09:16:17;5.30;;;0.73;;
76693;SDS011;65625;52.136;5.424;2023-01-01T09:18:44;3.08;;;0.95;;
76693;SDS011;65625;52.136;5.424;2023-01-01T09:21:11;5.22;;;0.82;;
76693;SDS011;65625;52.136;5.424;2023-01-01T09:23:38;11.18;;;0.85;;
76693;SDS011;65625;52.136;5.424;2023-01-01T09:26:05;6.90;;;1.10;;
76693;SDS011;65625;52.136;5.424;2023-01-01T09:31:00;7.93;;;0.88;;
76693;SDS011;65625;52.136;5.424;2023-01-01T09:33:28;6.20;;;0.73;;
76693;SDS011;65625;52.136;5.424;2023-01-01T09:35:54;3.05;;;0.57;;
76693;SDS011;65625;52.136;5.424;2023-01-01T09:38:20;5.13;;;0.60;;
76693;SDS011;65625;52.136;5.424;2023-01-01T09:40:51;5.05;;;0.88;;
76693;SDS011;65625;52.136;5.424;2023-01-01T09:46:02;5.68;;;0.98;;
76693;SDS011;65625;52.136;5.424;2023-01-01T09:48:35;5.63;;;0.88;;
76693;SDS011;65625;52.136;5.424;2023-01-01T09:51:08;4.57;;;1.20;;
76693;SDS011;65625;52.136;5.424;2023-01-01T09:53:52;6.93;;;0.90;;
76693;SDS011;65625;52.136;5.424;2023-01-01T09:56:25;8.07;;;1.25;;
76693;SDS011;65625;52.136;5.424;2023-01-01T09:58:54;4.00;;;0.88;;
76693;SDS011;65625;52.136;5.424;2023-01-01T10:03:58;3.00;;;0.80;;
76693;SDS011;65625;52.136;5.424;2023-01-01T10:06:26;9.18;;;1.23;;
76693;SDS011;65625;52.136;5.424;2023-01-01T10:09:06;6.20;;;1.40;;
76693;SDS011;65625;52.136;5.424;2023-01-01T10:11:55;8.82;;;1.02;;
76693;SDS011;65625;52.136;5.424;2023-01-01T10:14:30;5.57;;;0.90;;
76693;SDS011;65625;52.136;5.424;2023-01-01T10:19:36;5.60;;;1.05;;
76693;SDS011;65625;52.136;5.424;2023-01-01T10:22:16;4.35;;;0.80;;
76693;SDS011;65625;52.136;5.424;2023-01-01T10:24:48;5.88;;;0.90;;
76693;SDS011;65625;52.136;5.424;2023-01-01T10:27:28;5.82;;;1.00;;
76693;SDS011;65625;52.136;5.424;2023-01-01T10:29:59;4.30;;;1.15;;
76693;SDS011;65625;52.136;5.424;2023-01-01T10:32:31;12.80;;;1.45;;
76693;SDS011;65625;52.136;5.424;2023-01-01T10:35:01;8.60;;;1.50;;
76693;SDS011;65625;52.136;5.424;2023-01-01T10:37:36;6.60;;;1.80;;
76693;SDS011;65625;52.136;5.424;2023-01-01T10:40:13;7.85;;;1.60;;
76693;SDS011;65625;52.136;5.424;2023-01-01T10:42:46;11.88;;;1.45;;
76693;SDS011;65625;52.136;5.424;2023-01-01T10:45:15;5.70;;;1.00;;
76693;SDS011;65625;52.136;5.424;2023-01-01T10:51:03;7.97;;;1.52;;
76693;SDS011;65625;52.136;5.424;2023-01-01T10:53:38;5.47;;;1.00;;
76693;SDS011;65625;52.136;5.424;2023-01-01T10:56:13;7.03;;;1.02;;
76693;SDS011;65625;52.136;5.424;2023-01-01T10:58:44;8.13;;;1.33;;
76693;SDS011;65625;52.136;5.424;2023-01-01T11:01:24;7.70;;;1.40;;
76693;SDS011;65625;52.136;5.424;2023-01-01T11:03:54;6.88;;;1.05;;
76693;SDS011;65625;52.136;5.424;2023-01-01T11:06:22;8.23;;;1.27;;
76693;SDS011;65625;52.136;5.424;2023-01-01T11:08:57;8.45;;;1.15;;
76693;SDS011;65625;52.136;5.424;2023-01-01T11:11:29;6.75;;;1.80;;
76693;SDS011;65625;52.136;5.424;2023-01-01T11:14:00;4.38;;;0.85;;
76693;SDS011;65625;52.136;5.424;2023-01-01T11:16:33;7.32;;;1.27;;
76693;SDS011;65625;52.136;5.424;2023-01-01T11:19:05;6.38;;;1.35;;
76693;SDS011;65625;52.136;5.424;2023-01-01T11:24:09;9.63;;;1.60;;
76693;SDS011;65625;52.136;5.424;2023-01-01T11:26:43;4.53;;;1.10;;
76693;SDS011;65625;52.136;5.424;2023-01-01T11:29:18;7.95;;;1.23;;
76693;SDS011;65625;52.136;5.424;2023-01-01T11:31:47;6.53;;;1.58;;
76693;SDS011;65625;52.136;5.424;2023-01-01T11:34:31;9.20;;;1.20;;
76693;SDS011;65625;52.136;5.424;2023-01-01T11:37:14;7.13;;;1.30;;
76693;SDS011;65625;52.136;5.424;2023-01-01T11:39:48;4.55;;;1.00;;
76693;SDS011;65625;52.136;5.424;2023-01-01T11:42:17;8.00;;;2.10;;
76693;SDS011;65625;52.136;5.424;2023-01-01T11:45:10;5.88;;;1.20;;
76693;SDS011;65625;52.136;5.424;2023-01-01T11:47:42;9.13;;;1.20;;
76693;SDS011;65625;52.136;5.424;2023-01-01T11:50:18;7.90;;;1.33;;
76693;SDS011;65625;52.136;5.424;2023-01-01T11:52:53;8.18;;;1.25;;
76693;SDS011;65625;52.136;5.424;2023-01-01T11:55:42;7.45;;;1.48;;
76693;SDS011;65625;52.136;5.424;2023-01-01T12:00:46;6.20;;;1.25;;
76693;SDS011;65625;52.136;5.424;2023-01-01T12:03:23;4.55;;;1.00;;
76693;SDS011;65625;52.136;5.424;2023-01-01T12:06:10;4.63;;;1.45;;
76693;SDS011;65625;52.136;5.424;2023-01-01T12:08:46;11.05;;;2.22;;
76693;SDS011;65625;52.136;5.424;2023-01-01T12:11:28;9.00;;;1.25;;
76693;SDS011;65625;52.136;5.424;2023-01-01T12:14:12;7.55;;;1.10;;
76693;SDS011;65625;52.136;5.424;2023-01-01T12:19:17;7.10;;;1.50;;
76693;SDS011;65625;52.136;5.424;2023-01-01T12:21:49;7.22;;;1.50;;
76693;SDS011;65625;52.136;5.424;2023-01-01T12:24:20;8.18;;;1.98;;
76693;SDS011;65625;52.136;5.424;2023-01-01T12:38:14;4.93;;;1.27;;
76693;SDS011;65625;52.136;5.424;2023-01-01T12:43:34;8.15;;;1.88;;
76693;SDS011;65625;52.136;5.424;2023-01-01T12:46:10;7.43;;;1.83;;
76693;SDS011;65625;52.136;5.424;2023-01-01T13:00:02;5.70;;;1.48;;
76693;SDS011;65625;52.136;5.424;2023-01-01T13:02:36;11.27;;;1.40;;
76693;SDS011;65625;52.136;5.424;2023-01-01T13:05:14;9.27;;;1.88;;
76693;SDS011;65625;52.136;5.424;2023-01-01T13:07:46;7.68;;;1.20;;
76693;SDS011;65625;52.136;5.424;2023-01-01T13:10:22;11.63;;;1.40;;
76693;SDS011;65625;52.136;5.424;2023-01-01T13:12:55;6.82;;;1.23;;
76693;SDS011;65625;52.136;5.424;2023-01-01T13:18:04;8.82;;;1.50;;
76693;SDS011;65625;52.136;5.424;2023-01-01T13:20:34;9.90;;;1.88;;
76693;SDS011;65625;52.136;5.424;2023-01-01T13:23:05;8.93;;;1.13;;
76693;SDS011;65625;52.136;5.424;2023-01-01T13:25:31;9.30;;;1.65;;
76693;SDS011;65625;52.136;5.424;2023-01-01T13:28:00;14.05;;;1.85;;
76693;SDS011;65625;52.136;5.424;2023-01-01T13:38:56;9.70;;;1.55;;
76693;SDS011;65625;52.136;5.424;2023-01-01T14:00:30;6.43;;;1.35;;
76693;SDS011;65625;52.136;5.424;2023-01-01T14:03:15;12.35;;;1.40;;
76693;SDS011;65625;52.136;5.424;2023-01-01T14:08:32;7.97;;;1.30;;
76693;SDS011;65625;52.136;5.424;2023-01-01T14:11:00;13.15;;;1.42;;
76693;SDS011;65625;52.136;5.424;2023-01-01T14:15:58;7.70;;;1.40;;
76693;SDS011;65625;52.136;5.424;2023-01-01T14:18:38;7.90;;;1.70;;
76693;SDS011;65625;52.136;5.424;2023-01-01T14:21:16;10.13;;;1.40;;
76693;SDS011;65625;52.136;5.424;2023-01-01T14:26:29;8.43;;;1.67;;
76693;SDS011;65625;52.136;5.424;2023-01-01T14:28:57;8.15;;;1.52;;
76693;SDS011;65625;52.136;5.424;2023-01-01T14:31:33;10.10;;;1.30;;
76693;SDS011;65625;52.136;5.424;2023-01-01T14:34:44;6.57;;;1.17;;
76693;SDS011;65625;52.136;5.424;2023-01-01T14:36:52;6.75;;;1.40;;
76693;SDS011;65625;52.136;5.424;2023-01-01T14:39:22;8.32;;;1.60;;
76693;SDS011;65625;52.136;5.424;2023-01-01T14:41:54;6.60;;;1.30;;
76693;SDS011;65625;52.136;5.424;2023-01-01T14:44:26;7.95;;;1.70;;
76693;SDS011;65625;52.136;5.424;2023-01-01T14:46:58;8.18;;;1.48;;
76693;SDS011;65625;52.136;5.424;2023-01-01T14:49:27;7.90;;;1.77;;
76693;SDS011;65625;52.136;5.424;2023-01-01T14:52:00;9.35;;;2.10;;
76693;SDS011;65625;52.136;5.424;2023-01-01T14:54:35;10.52;;;1.58;;
76693;SDS011;65625;52.136;5.424;2023-01-01T14:57:08;11.38;;;1.80;;
76693;SDS011;65625;52.136;5.424;2023-01-01T14:59:36;10.93;;;1.55;;
76693;SDS011;65625;52.136;5.424;2023-01-01T15:02:12;7.70;;;1.92;;
76693;SDS011;65625;52.136;5.424;2023-01-01T15:04:41;5.97;;;1.30;;
76693;SDS011;65625;52.136;5.424;2023-01-01T15:07:25;9.20;;;1.90;;
76693;SDS011;65625;52.136;5.424;2023-01-01T15:09:53;7.32;;;1.98;;
76693;SDS011;65625;52.136;5.424;2023-01-01T15:12:20;11.07;;;3.03;;
76693;SDS011;65625;52.136;5.424;2023-01-01T15:14:50;5.75;;;2.30;;
76693;SDS011;65625;52.136;5.424;2023-01-01T15:17:21;13.45;;;3.53;;
76693;SDS011;65625;52.136;5.424;2023-01-01T15:20:14;10.63;;;2.72;;
76693;SDS011;65625;52.136;5.424;2023-01-01T15:22:46;10.77;;;3.03;;
76693;SDS011;65625;52.136;5.424;2023-01-01T15:25:14;10.60;;;2.55;;
76693;SDS011;65625;52.136;5.424;2023-01-01T15:27:46;9.10;;;2.95;;
76693;SDS011;65625;52.136;5.424;2023-01-01T15:30:24;10.57;;;3.58;;
76693;SDS011;65625;52.136;5.424;2023-01-01T15:33:05;8.55;;;2.78;;
76693;SDS011;65625;52.136;5.424;2023-01-01T15:35:33;7.80;;;2.58;;
76693;SDS011;65625;52.136;5.424;2023-01-01T15:38:08;23.58;;;9.55;;
76693;SDS011;65625;52.136;5.424;2023-01-01T15:40:41;23.75;;;9.70;;
76693;SDS011;65625;52.136;5.424;2023-01-01T15:45:55;21.48;;;9.65;;
76693;SDS011;65625;52.136;5.424;2023-01-01T15:48:46;22.55;;;8.60;;
76693;SDS011;65625;52.136;5.424;2023-01-01T15:51:26;18.75;;;6.60;;
76693;SDS011;65625;52.136;5.424;2023-01-01T15:56:28;10.55;;;3.92;;
76693;SDS011;65625;52.136;5.424;2023-01-01T15:59:01;13.45;;;3.33;;
76693;SDS011;65625;52.136;5.424;2023-01-01T16:01:35;15.88;;;7.18;;
76693;SDS011;65625;52.136;5.424;2023-01-01T16:04:09;20.60;;;6.00;;
76693;SDS011;65625;52.136;5.424;2023-01-01T16:06:45;15.30;;;6.20;;
76693;SDS011;65625;52.136;5.424;2023-01-01T16:09:15;14.48;;;4.68;;
76693;SDS011;65625;52.136;5.424;2023-01-01T16:11:43;8.18;;;3.00;;
76693;SDS011;65625;52.136;5.424;2023-01-01T16:14:10;12.85;;;3.30;;
76693;SDS011;65625;52.136;5.424;2023-01-01T16:16:37;10.70;;;2.67;;
76693;SDS011;65625;52.136;5.424;2023-01-01T16:19:05;9.60;;;2.63;;
76693;SDS011;65625;52.136;5.424;2023-01-01T16:21:32;9.32;;;2.65;;
76693;SDS011;65625;52.136;5.424;2023-01-01T16:23:59;9.57;;;2.40;;
76693;SDS011;65625;52.136;5.424;2023-01-01T16:26:26;10.18;;;3.08;;
76693;SDS011;65625;52.136;5.424;2023-01-01T16:28:52;11.70;;;3.67;;
76693;SDS011;65625;52.136;5.424;2023-01-01T16:31:21;13.60;;;3.95;;
76693;SDS011;65625;52.136;5.424;2023-01-01T16:33:52;11.93;;;3.35;;
76693;SDS011;65625;52.136;5.424;2023-01-01T16:36:20;14.48;;;4.57;;
76693;SDS011;65625;52.136;5.424;2023-01-01T16:38:47;13.18;;;5.40;;
76693;SDS011;65625;52.136;5.424;2023-01-01T16:41:14;12.77;;;4.10;;
76693;SDS011;65625;52.136;5.424;2023-01-01T16:43:42;10.63;;;4.20;;
76693;SDS011;65625;52.136;5.424;2023-01-01T16:46:10;11.50;;;4.97;;
76693;SDS011;65625;52.136;5.424;2023-01-01T16:48:39;12.48;;;3.58;;
76693;SDS011;65625;52.136;5.424;2023-01-01T16:51:05;21.83;;;6.53;;
76693;SDS011;65625;52.136;5.424;2023-01-01T16:53:33;13.13;;;2.97;;
76693;SDS011;65625;52.136;5.424;2023-01-01T16:56:01;7.88;;;2.88;;
76693;SDS011;65625;52.136;5.424;2023-01-01T16:58:28;13.57;;;3.13;;
76693;SDS011;65625;52.136;5.424;2023-01-01T17:03:41;18.30;;;5.32;;
76693;SDS011;65625;52.136;5.424;2023-01-01T17:06:08;15.32;;;5.47;;
76693;SDS011;65625;52.136;5.424;2023-01-01T17:08:35;19.58;;;7.03;;
76693;SDS011;65625;52.136;5.424;2023-01-01T17:11:03;16.50;;;6.10;;
76693;SDS011;65625;52.136;5.424;2023-01-01T17:13:41;10.40;;;4.05;;
76693;SDS011;65625;52.136;5.424;2023-01-01T17:16:08;11.45;;;4.30;;
76693;SDS011;65625;52.136;5.424;2023-01-01T17:18:37;12.30;;;3.35;;
76693;SDS011;65625;52.136;5.424;2023-01-01T17:21:24;20.05;;;4.95;;
76693;SDS011;65625;52.136;5.424;2023-01-01T17:23:51;12.18;;;3.92;;
76693;SDS011;65625;52.136;5.424;2023-01-01T17:26:19;43.45;;;16.92;;